Time;durP1;ratioP1;P1;durP2;ratioP2;P2;SDS_P1;SDS_P2;PMS_P1;PMS_P2;Temp;Humidity;BMP_temperature;BMP_pressure;BME280_temperature;BME280_humidity;BME280_pressure;Samples;Min_cycle;Max_cycle;Signal;HPM_P1;HPM_P2
2024/02/24 00:01:08;;;;;;;1.90;1.10;;;;;;;5.09;67.86;98549.41;2523137;28;20575;-80
2024/02/24 00:02:22;;;;;;;2.50;1.15;;;;;;;5.02;68.07;98554.69;2531154;28;20498;-82
2024/02/24 00:03:36;;;;;;;2.80;0.80;;;;;;;4.96;68.13;98548.81;2524633;28;20098;-80
2024/02/24 00:04:50;;;;;;;3.97;1.00;;;;;;;4.91;68.30;98554.06;2529262;28;20126;-81
2024/02/24 00:06:05;;;;;;;2.17;1.05;;;;;;;4.86;68.64;98555.03;2529202;28;20045;-80
2024/02/24 00:07:18;;;;;;;2.55;1.35;;;;;;;4.82;68.75;98551.63;2524759;28;20045;-81
2024/02/24 00:08:33;;;;;;;1.27;0.95;;;;;;;4.78;68.93;98552.59;2523583;28;20422;-81
2024/02/24 00:09:46;;;;;;;2.92;0.98;;;;;;;4.74;69.11;98550.94;2526967;28;20399;-82
2024/02/24 00:11:02;;;;;;;2.53;0.75;;;;;;;4.69;69.09;98553.59;2527371;28;20048;-81
2024/02/24 00:12:15;;;;;;;0.85;0.80;;;;;;;4.65;69.28;98554.56;2530875;28;20053;-81
2024/02/24 00:13:30;;;;;;;1.02;0.90;;;;;;;4.64;69.29;98557.16;2523620;28;20840;-81
2024/02/24 00:14:43;;;;;;;1.52;0.70;;;;;;;4.61;69.50;98563.22;2517061;28;20053;-82
2024/02/24 00:15:58;;;;;;;0.75;0.75;;;;;;;4.61;69.71;98560.63;2528104;28;20046;-81
2024/02/24 00:17:11;;;;;;;2.42;1.58;;;;;;;4.60;69.62;98558.94;2525538;28;20073;-81
2024/02/24 00:18:26;;;;;;;1.10;1.00;;;;;;;4.60;69.80;98566.69;2530579;28;20557;-81
2024/02/24 00:19:39;;;;;;;3.63;1.50;;;;;;;4.59;69.91;98567.56;2521550;28;20064;-81
2024/02/24 00:20:54;;;;;;;0.95;0.80;;;;;;;4.62;70.10;98571.81;2523100;28;20125;-81
2024/02/24 00:22:07;;;;;;;0.77;0.77;;;;;;;4.63;70.16;98568.38;2523246;28;20399;-81
2024/02/24 00:23:23;;;;;;;4.10;0.93;;;;;;;4.67;70.29;98568.25;2529867;28;20047;-81
2024/02/24 00:24:36;;;;;;;1.65;1.10;;;;;;;4.72;70.20;98569.03;2530835;28;20050;-81
2024/02/24 00:25:50;;;;;;;1.98;0.88;;;;;;;4.74;69.94;98562.13;2526013;28;20497;-81
2024/02/24 00:27:05;;;;;;;0.65;0.65;;;;;;;4.79;69.95;98572.38;2527990;28;20565;-81
2024/02/24 00:28:20;;;;;;;2.03;1.25;;;;;;;4.81;69.97;98571.47;2524192;28;20061;-81
2024/02/24 00:29:33;;;;;;;1.30;0.60;;;;;;;4.84;69.74;98572.28;2525921;28;20053;-80
2024/02/24 00:30:48;;;;;;;2.55;0.90;;;;;;;4.87;69.76;98574.81;2529961;28;20121;-81
2024/02/24 00:32:01;;;;;;;2.55;0.75;;;;;;;4.89;69.62;98570.47;2529625;28;20045;-81
2024/02/24 00:33:15;;;;;;;1.23;0.80;;;;;;;4.89;69.46;98567.88;2526599;28;20124;-81
2024/02/24 00:34:29;;;;;;;5.22;3.33;;;;;;;4.90;69.44;98569.59;2525282;28;20525;-81
2024/02/24 00:35:43;;;;;;;27.05;20.60;;;;;;;4.93;69.38;98566.94;2531267;28;20074;-81
2024/02/24 00:36:57;;;;;;;2.55;1.23;;;;;;;4.94;69.26;98569.50;2524564;28;20048;-81
2024/02/24 00:38:12;;;;;;;1.90;0.85;;;;;;;4.96;69.40;98565.16;2530464;28;20048;-81
2024/02/24 00:39:26;;;;;;;0.88;0.60;;;;;;;4.99;69.40;98574.59;2525847;28;20103;-82
2024/02/24 00:40:40;;;;;;;1.08;0.70;;;;;;;5.03;69.18;98573.63;2531599;28;20145;-81
2024/02/24 00:41:54;;;;;;;6.47;1.10;;;;;;;5.08;69.08;98584.72;2521009;28;20081;-81
2024/02/24 00:43:10;;;;;;;3.25;0.80;;;;;;;5.11;68.66;98579.53;2519592;28;20340;-81
2024/02/24 00:44:23;;;;;;;0.73;0.50;;;;;;;5.11;68.79;98584.69;2524339;28;20049;-81
2024/02/24 00:45:38;;;;;;;1.02;0.88;;;;;;;5.11;68.85;98584.69;2531637;28;20080;-81
2024/02/24 00:46:52;;;;;;;2.85;0.93;;;;;;;5.13;68.87;98598.41;2527656;28;20053;-80
2024/02/24 00:48:07;;;;;;;3.20;1.10;;;;;;;5.14;68.96;98589.81;2528449;28;20050;-84
2024/02/24 00:49:20;;;;;;;2.13;1.10;;;;;;;5.16;68.96;98607.84;2523008;28;20399;-82
2024/02/24 00:50:34;;;;;;;1.25;0.85;;;;;;;5.18;69.16;98619.88;2522580;28;20038;-82
2024/02/24 00:51:48;;;;;;;1.30;1.00;;;;;;;5.20;69.25;98623.28;2523484;28;20049;-81
2024/02/24 00:53:02;;;;;;;0.82;0.82;;;;;;;5.24;69.39;98621.50;2529045;28;20048;-82
2024/02/24 00:54:16;;;;;;;1.10;1.00;;;;;;;5.27;69.20;98623.16;2533443;28;20052;-81
2024/02/24 00:55:30;;;;;;;2.20;0.90;;;;;;;5.28;69.43;98633.47;2525350;28;20044;-81
2024/02/24 00:56:44;;;;;;;2.45;1.00;;;;;;;5.32;69.21;98642.91;2530889;28;20049;-81
2024/02/24 00:57:59;;;;;;;1.20;1.05;;;;;;;5.35;69.48;98648.00;2524061;28;20121;-81
2024/02/24 00:59:14;;;;;;;1.25;1.15;;;;;;;5.37;69.69;98653.13;2530260;28;20038;-81
2024/02/24 01:00:28;;;;;;;0.80;0.80;;;;;;;5.37;70.18;98651.41;2535302;28;20049;-81
2024/02/24 01:01:42;;;;;;;1.45;1.08;;;;;;;5.36;70.55;98651.44;2533912;28;20490;-81
2024/02/24 01:02:56;;;;;;;3.03;1.98;;;;;;;5.34;70.76;98654.03;2539215;28;20121;-80
2024/02/24 01:04:10;;;;;;;0.98;0.88;;;;;;;5.30;71.54;98659.31;2530921;28;20050;-81
2024/02/24 01:05:24;;;;;;;1.27;0.60;;;;;;;5.24;71.67;98643.03;2524742;28;20056;-81
2024/02/24 01:06:37;;;;;;;1.92;0.70;;;;;;;5.16;71.99;98659.56;2516158;28;20042;-80
2024/02/24 01:07:55;;;;;;;0.98;0.70;;;;;;;5.09;72.57;98664.03;2528854;28;20064;-81
2024/02/24 01:09:09;;;;;;;0.50;0.50;;;;;;;5.00;73.31;98657.25;2528682;28;20483;-80
2024/02/24 01:10:24;;;;;;;1.20;0.55;;;;;;;4.92;73.98;98661.72;2525000;28;20042;-81
2024/02/24 01:11:38;;;;;;;0.65;0.52;;;;;;;4.83;74.27;98661.91;2524328;28;20038;-81
2024/02/24 01:12:52;;;;;;;0.77;0.65;;;;;;;4.75;74.39;98651.69;2525469;28;20553;-77
2024/02/24 01:14:06;;;;;;;0.70;0.70;;;;;;;4.69;74.34;98658.69;2531074;28;20045;-81
2024/02/24 01:15:22;;;;;;;0.70;0.70;;;;;;;4.62;75.23;98655.38;2527304;28;20137;-81
2024/02/24 01:16:37;;;;;;;1.95;0.75;;;;;;;4.55;75.22;98656.34;2526965;28;20066;-82
2024/02/24 01:17:55;;;;;;;1.95;1.05;;;;;;;4.48;75.68;98658.16;2531634;28;20395;-81
2024/02/24 01:19:08;;;;;;;1.45;1.10;;;;;;;4.41;76.09;98653.97;2524787;28;20038;-81
2024/02/24 01:20:22;;;;;;;0.55;0.55;;;;;;;4.36;76.09;98650.59;2532803;28;20149;-82
2024/02/24 01:21:40;;;;;;;0.63;0.63;;;;;;;4.31;76.16;98634.31;2526836;28;20537;-80
2024/02/24 01:22:57;;;;;;;0.88;0.88;;;;;;;4.25;76.30;98645.59;2530734;28;20045;-80
2024/02/24 01:24:13;;;;;;;0.80;0.80;;;;;;;4.20;76.61;98644.81;2531761;28;20053;-82
2024/02/24 01:25:27;;;;;;;0.85;0.80;;;;;;;4.17;76.66;98637.13;2526667;28;20050;-82
2024/02/24 01:26:41;;;;;;;2.08;0.88;;;;;;;4.13;76.78;98638.03;2532298;28;20060;-81
2024/02/24 01:27:55;;;;;;;3.83;0.93;;;;;;;4.10;76.94;98623.44;2528641;28;20546;-82
2024/02/24 01:29:09;;;;;;;0.80;0.63;;;;;;;4.07;76.96;98622.66;2529070;28;20057;-81
2024/02/24 01:30:26;;;;;;;0.60;0.60;;;;;;;4.04;77.09;98622.69;2532652;28;20128;-81
2024/02/24 01:31:39;;;;;;;0.82;0.68;;;;;;;3.99;77.49;98609.00;2516269;28;20046;-80
2024/02/24 01:32:54;;;;;;;1.35;0.80;;;;;;;3.97;77.56;98610.75;2524685;28;20046;-80
2024/02/24 01:34:07;;;;;;;2.95;0.95;;;;;;;3.94;77.71;98607.34;2524632;28;20046;-80
2024/02/24 01:35:22;;;;;;;1.20;1.10;;;;;;;3.92;77.72;98605.66;2531848;28;20044;-81
2024/02/24 01:36:35;;;;;;;1.77;0.60;;;;;;;3.90;77.91;98613.44;2525071;28;20054;-81
2024/02/24 01:37:50;;;;;;;0.73;0.50;;;;;;;3.89;78.46;98621.19;2524940;28;20050;-81
2024/02/24 01:39:03;;;;;;;1.02;0.77;;;;;;;3.86;78.31;98619.50;2524376;28;20056;-81
2024/02/24 01:40:18;;;;;;;1.73;0.70;;;;;;;3.84;78.19;98610.94;2531814;28;20077;-81
2024/02/24 01:41:31;;;;;;;0.95;0.60;;;;;;;3.83;78.42;98608.38;2525744;28;20046;-80
2024/02/24 01:42:45;;;;;;;1.25;0.90;;;;;;;3.81;78.55;98613.56;2524109;28;20063;-81
2024/02/24 01:43:59;;;;;;;1.10;0.80;;;;;;;3.78;78.73;98598.13;2524418;28;20076;-82
2024/02/24 01:45:14;;;;;;;0.70;0.60;;;;;;;3.76;78.54;98601.59;2524763;28;20034;-82
2024/02/24 01:46:31;;;;;;;1.17;0.60;;;;;;;3.72;78.62;98606.81;2524122;28;20056;-81
2024/02/24 01:47:45;;;;;;;1.00;0.93;;;;;;;3.69;78.59;98608.56;2524305;28;20084;-81
2024/02/24 01:48:58;;;;;;;0.60;0.57;;;;;;;3.64;78.57;98608.63;2524550;28;20069;-81
2024/02/24 01:50:13;;;;;;;2.22;0.80;;;;;;;3.60;78.74;98614.69;2524599;28;20467;-81
2024/02/24 01:51:27;;;;;;;2.40;0.90;;;;;;;3.56;78.68;98619.91;2523826;28;20397;-80
2024/02/24 01:52:42;;;;;;;1.33;0.98;;;;;;;3.51;78.90;98612.22;2526592;28;20060;-81
2024/02/24 01:53:56;;;;;;;0.65;0.65;;;;;;;3.47;78.65;98614.00;2530475;28;20053;-81
2024/02/24 01:55:10;;;;;;;10.07;1.17;;;;;;;3.43;79.00;98617.50;2524254;28;20069;-81
2024/02/24 01:56:24;;;;;;;2.08;0.68;;;;;;;3.40;79.11;98620.09;2525323;28;20390;-80
2024/02/24 01:57:42;;;;;;;2.50;0.88;;;;;;;3.37;78.53;98622.72;2527118;28;20053;-81
2024/02/24 01:58:55;;;;;;;1.00;0.82;;;;;;;3.34;79.19;98619.34;2535463;28;20125;-80
2024/02/24 02:00:11;;;;;;;1.13;0.90;;;;;;;3.30;79.11;98623.66;2530325;28;20046;-81
2024/02/24 02:01:24;;;;;;;1.88;0.65;;;;;;;3.27;79.30;98627.13;2525733;28;20046;-81
2024/02/24 02:02:41;;;;;;;3.53;0.90;;;;;;;3.25;79.56;98626.31;2533552;28;20128;-81
2024/02/24 02:03:54;;;;;;;1.20;0.80;;;;;;;3.26;79.60;98628.03;2525515;28;20108;-81
2024/02/24 02:05:09;;;;;;;1.77;1.33;;;;;;;3.27;79.85;98623.72;2531111;28;20120;-81
2024/02/24 02:06:28;;;;;;;1.58;0.82;;;;;;;3.29;80.08;98624.56;2528085;28;20046;-81
2024/02/24 02:07:42;;;;;;;1.55;0.68;;;;;;;3.31;80.12;98627.97;2535195;28;20422;-81
2024/02/24 02:08:56;;;;;;;0.40;0.40;;;;;;;3.33;80.23;98623.66;2533690;28;20057;-79
2024/02/24 02:10:10;;;;;;;2.13;0.70;;;;;;;3.35;80.19;98623.63;2538944;28;20105;-79
2024/02/24 02:11:24;;;;;;;0.80;0.60;;;;;;;3.34;80.07;98627.94;2527378;28;20042;-79
2024/02/24 02:12:38;;;;;;;3.03;1.02;;;;;;;3.32;80.08;98624.50;2526630;28;20056;-79
2024/02/24 02:13:52;;;;;;;0.95;0.95;;;;;;;3.33;80.10;98628.81;2531744;28;20054;-80
2024/02/24 02:15:07;;;;;;;0.85;0.60;;;;;;;3.31;80.15;98619.38;2529955;28;20569;-80
2024/02/24 02:16:21;;;;;;;0.75;0.75;;;;;;;3.27;80.05;98619.41;2527514;28;20498;-81
2024/02/24 02:17:35;;;;;;;1.23;0.65;;;;;;;3.25;80.25;98631.47;2525143;28;20050;-80
2024/02/24 02:18:50;;;;;;;1.17;1.13;;;;;;;3.22;80.10;98622.91;2527850;28;20045;-81
2024/02/24 02:20:06;;;;;;;1.52;0.77;;;;;;;3.18;80.52;98621.25;2534652;28;20124;-81
2024/02/24 02:21:19;;;;;;;1.23;0.80;;;;;;;3.14;80.17;98625.56;2528578;28;20046;-81
2024/02/24 02:22:35;;;;;;;0.55;0.55;;;;;;;3.11;80.12;98627.34;2525552;28;20125;-80
2024/02/24 02:23:49;;;;;;;1.80;0.77;;;;;;;3.08;80.29;98628.22;2530629;28;20041;-80
2024/02/24 02:25:04;;;;;;;1.27;0.77;;;;;;;3.07;80.22;98629.06;2524694;28;20056;-81
2024/02/24 02:26:18;;;;;;;0.77;0.77;;;;;;;3.04;80.40;98622.22;2531709;28;20414;-81
2024/02/24 02:27:33;;;;;;;0.70;0.65;;;;;;;3.05;80.42;98623.97;2525903;28;20042;-81
2024/02/24 02:28:47;;;;;;;0.93;0.50;;;;;;;3.06;80.51;98632.53;2527727;28;20049;-81
2024/02/24 02:30:03;;;;;;;1.00;0.73;;;;;;;3.09;80.59;98626.50;2530544;28;20046;-81
2024/02/24 02:31:16;;;;;;;0.60;0.60;;;;;;;3.10;80.76;98629.06;2531221;28;20061;-81
2024/02/24 02:32:31;;;;;;;0.73;0.50;;;;;;;3.13;80.79;98628.19;2526361;28;20054;-82
2024/02/24 02:33:44;;;;;;;0.70;0.65;;;;;;;3.16;80.88;98630.72;2526724;28;20494;-81
2024/02/24 02:34:59;;;;;;;0.68;0.65;;;;;;;3.19;80.88;98628.09;2528383;28;20052;-82
2024/02/24 02:36:12;;;;;;;0.70;0.70;;;;;;;3.24;80.93;98624.59;2528934;28;20046;-81
2024/02/24 02:37:27;;;;;;;0.45;0.43;;;;;;;3.25;81.00;98623.75;2525370;28;20099;-81
2024/02/24 02:38:41;;;;;;;0.60;0.60;;;;;;;3.27;81.11;98624.56;2525858;28;20077;-81
2024/02/24 02:39:56;;;;;;;0.70;0.70;;;;;;;3.31;81.17;98632.28;2531031;28;20049;-81
2024/02/24 02:41:09;;;;;;;0.70;0.70;;;;;;;3.32;81.21;98628.81;2530075;28;20082;-81
2024/02/24 02:42:24;;;;;;;1.55;1.45;;;;;;;3.34;81.13;98630.50;2526998;28;20124;-80
2024/02/24 02:43:37;;;;;;;1.05;0.85;;;;;;;3.36;81.14;98633.94;2524854;28;20042;-80
2024/02/24 02:44:52;;;;;;;0.52;0.50;;;;;;;3.37;81.11;98632.19;2532234;28;20060;-81
2024/02/24 02:46:05;;;;;;;0.40;0.40;;;;;;;3.39;81.08;98639.03;2529612;28;20040;-80
2024/02/24 02:47:19;;;;;;;1.95;0.35;;;;;;;3.41;81.16;98634.72;2534344;28;20044;-81
2024/02/24 02:48:33;;;;;;;0.70;0.70;;;;;;;3.41;81.18;98637.31;2526535;28;20598;-81
2024/02/24 02:49:47;;;;;;;0.60;0.60;;;;;;;3.43;81.15;98634.69;2532785;28;20050;-81
2024/02/24 02:51:01;;;;;;;1.08;0.63;;;;;;;3.44;80.98;98634.69;2524171;28;20049;-81
2024/02/24 02:52:15;;;;;;;0.60;0.60;;;;;;;3.45;81.16;98633.78;2524567;28;20046;-80
2024/02/24 02:53:29;;;;;;;2.00;0.93;;;;;;;3.46;81.12;98643.25;2524453;28;20049;-81
2024/02/24 02:54:44;;;;;;;2.15;1.67;;;;;;;3.47;81.23;98634.63;2525501;28;20471;-82
2024/02/24 02:55:58;;;;;;;0.40;0.40;;;;;;;3.49;81.08;98635.47;2530456;28;20042;-81
2024/02/24 02:57:12;;;;;;;0.38;0.38;;;;;;;3.50;81.11;98636.31;2532287;28;20571;-79
2024/02/24 02:58:26;;;;;;;0.40;0.40;;;;;;;3.50;81.09;98626.84;2530460;28;20050;-80
2024/02/24 02:59:40;;;;;;;1.98;0.82;;;;;;;3.52;81.05;98633.75;2535016;28;20109;-80
2024/02/24 03:00:54;;;;;;;0.90;0.75;;;;;;;3.50;81.00;98642.34;2526934;28;20042;-80
2024/02/24 03:02:08;;;;;;;1.20;0.60;;;;;;;3.46;80.78;98632.09;2530094;28;20120;-81
2024/02/24 03:03:21;;;;;;;0.68;0.68;;;;;;;3.43;80.79;98634.69;2527038;28;20510;-81
2024/02/24 03:04:36;;;;;;;1.13;0.80;;;;;;;3.39;80.79;98635.63;2532991;28;20065;-81
2024/02/24 03:05:49;;;;;;;0.70;0.70;;;;;;;3.32;80.60;98636.56;2524487;28;20050;-80
2024/02/24 03:07:04;;;;;;;1.58;0.60;;;;;;;3.25;80.71;98631.47;2524286;28;20042;-81
2024/02/24 03:08:17;;;;;;;0.70;0.70;;;;;;;3.19;80.62;98638.41;2530737;28;20050;-80
2024/02/24 03:09:32;;;;;;;0.88;0.77;;;;;;;3.12;80.69;98635.03;2525932;28;20046;-81
2024/02/24 03:10:47;;;;;;;7.22;0.73;;;;;;;3.08;80.51;98637.69;2531592;28;20049;-81
2024/02/24 03:12:01;;;;;;;0.70;0.70;;;;;;;3.01;80.59;98640.31;2527934;28;20077;-81
2024/02/24 03:13:14;;;;;;;1.10;0.90;;;;;;;2.96;80.57;98638.66;2527994;28;20050;-81
2024/02/24 03:14:29;;;;;;;0.77;0.77;;;;;;;2.90;80.68;98649.88;2524573;28;20046;-82
2024/02/24 03:15:43;;;;;;;2.35;1.65;;;;;;;2.83;80.71;98648.22;2530323;28;20037;-81
2024/02/24 03:16:57;;;;;;;1.30;0.95;;;;;;;2.78;80.75;98652.56;2534980;28;20117;-80
2024/02/24 03:18:11;;;;;;;2.88;1.05;;;;;;;2.73;80.80;98651.75;2528423;28;20049;-81
2024/02/24 03:19:25;;;;;;;1.98;1.40;;;;;;;2.67;80.72;98649.25;2525565;28;20140;-81
2024/02/24 03:20:38;;;;;;;1.00;0.90;;;;;;;2.61;80.88;98653.59;2523554;28;20045;-81
2024/02/24 03:21:53;;;;;;;5.03;3.63;;;;;;;2.57;80.89;98653.63;2523594;28;20414;-81
2024/02/24 03:23:06;;;;;;;5.43;2.97;;;;;;;2.52;80.95;98658.81;2528045;28;20037;-81
2024/02/24 03:24:21;;;;;;;5.20;3.58;;;;;;;2.49;81.00;98656.25;2526991;28;20427;-81
2024/02/24 03:25:34;;;;;;;3.88;2.47;;;;;;;2.43;81.06;98664.03;2532411;28;20056;-81
2024/02/24 03:26:50;;;;;;;7.30;4.38;;;;;;;2.40;81.19;98656.31;2526116;28;20060;-82
2024/02/24 03:28:04;;;;;;;2.35;1.85;;;;;;;2.37;80.99;98661.50;2529950;28;20053;-81
2024/02/24 03:29:18;;;;;;;2.50;1.00;;;;;;;2.34;81.50;98666.66;2530482;28;20046;-82
2024/02/24 03:30:31;;;;;;;1.48;0.70;;;;;;;2.31;81.13;98669.28;2525985;28;20093;-81
2024/02/24 03:31:46;;;;;;;2.30;0.77;;;;;;;2.25;81.33;98672.75;2524234;28;20545;-82
2024/02/24 03:32:59;;;;;;;0.82;0.82;;;;;;;2.21;81.38;98667.63;2527683;28;20053;-82
2024/02/24 03:34:14;;;;;;;1.40;0.68;;;;;;;2.16;81.41;98676.22;2528523;28;20542;-81
2024/02/24 03:35:27;;;;;;;0.95;0.80;;;;;;;2.11;81.36;98670.25;2530633;28;20052;-82
2024/02/24 03:36:43;;;;;;;2.70;1.00;;;;;;;2.06;81.51;98666.84;2524446;28;20072;-82
2024/02/24 03:37:57;;;;;;;0.60;0.60;;;;;;;2.03;81.48;98668.59;2524569;28;20495;-80
2024/02/24 03:39:11;;;;;;;1.42;0.80;;;;;;;2.00;81.55;98666.06;2523514;28;20041;-82
2024/02/24 03:40:25;;;;;;;1.15;0.90;;;;;;;1.97;81.61;98666.91;2524485;28;20487;-81
2024/02/24 03:41:39;;;;;;;0.75;0.73;;;;;;;1.92;81.79;98666.09;2531950;28;20049;-81
2024/02/24 03:42:54;;;;;;;1.83;1.48;;;;;;;1.88;81.71;98659.25;2526789;28;20056;-82
2024/02/24 03:44:08;;;;;;;2.45;0.80;;;;;;;1.84;81.74;98655.00;2529564;28;20053;-81
2024/02/24 03:45:22;;;;;;;1.35;0.77;;;;;;;1.80;81.75;98648.16;2531013;28;20041;-81
2024/02/24 03:46:36;;;;;;;0.60;0.60;;;;;;;1.77;81.82;98656.75;2533235;28;20496;-82
2024/02/24 03:47:50;;;;;;;1.70;0.85;;;;;;;1.71;81.77;98647.34;2527067;28;20053;-82
2024/02/24 03:49:04;;;;;;;5.72;1.80;;;;;;;1.70;82.04;98649.91;2530478;28;20128;-81
2024/02/24 03:50:18;;;;;;;2.65;0.90;;;;;;;1.67;82.03;98645.63;2524865;28;20049;-82
2024/02/24 03:51:32;;;;;;;0.93;0.68;;;;;;;1.64;82.14;98647.38;2532542;28;20120;-82
2024/02/24 03:52:46;;;;;;;1.02;0.85;;;;;;;1.60;82.04;98646.56;2520107;28;20051;-82
2024/02/24 03:54:00;;;;;;;1.50;0.73;;;;;;;1.58;82.03;98642.28;2532539;28;20416;-81
2024/02/24 03:55:14;;;;;;;3.05;0.68;;;;;;;1.54;82.12;98646.56;2531578;28;20045;-81
2024/02/24 03:56:28;;;;;;;0.90;0.88;;;;;;;1.51;82.08;98649.16;2527138;28;20442;-81
2024/02/24 03:57:42;;;;;;;2.30;0.77;;;;;;;1.47;82.30;98644.88;2526056;28;20107;-81
2024/02/24 03:58:57;;;;;;;0.68;0.68;;;;;;;1.45;82.27;98649.19;2536088;28;20050;-81
2024/02/24 04:00:12;;;;;;;4.13;0.98;;;;;;;1.40;82.09;98646.63;2536552;28;20057;-81
2024/02/24 04:01:27;;;;;;;1.05;0.90;;;;;;;1.36;82.47;98651.78;2527084;28;20081;-81
2024/02/24 04:02:42;;;;;;;1.40;1.00;;;;;;;1.31;82.42;98652.63;2531681;28;20132;-82
2024/02/24 04:03:56;;;;;;;1.40;1.00;;;;;;;1.29;82.42;98663.78;2526725;28;20045;-80
2024/02/24 04:05:10;;;;;;;0.85;0.85;;;;;;;1.25;82.34;98670.66;2528851;28;20049;-81
2024/02/24 04:06:24;;;;;;;3.95;1.20;;;;;;;1.22;82.31;98669.81;2524245;28;20386;-81
2024/02/24 04:07:38;;;;;;;1.48;0.90;;;;;;;1.18;82.25;98666.38;2532110;28;20049;-81
2024/02/24 04:08:52;;;;;;;2.92;1.10;;;;;;;1.13;82.36;98662.97;2526324;28;20060;-81
2024/02/24 04:10:07;;;;;;;1.20;1.10;;;;;;;1.09;82.48;98667.28;2529611;28;20049;-82
2024/02/24 04:11:21;;;;;;;2.88;1.13;;;;;;;1.07;82.47;98668.16;2523714;28;20042;-81
2024/02/24 04:12:34;;;;;;;2.00;0.93;;;;;;;1.03;82.75;98664.75;2523204;28;20050;-80
2024/02/24 04:13:49;;;;;;;1.17;1.02;;;;;;;1.02;82.53;98665.59;2525715;28;20049;-81
2024/02/24 04:15:04;;;;;;;2.05;1.00;;;;;;;1.00;82.66;98667.28;2533554;28;20061;-81
2024/02/24 04:16:19;;;;;;;1.00;0.88;;;;;;;0.99;83.00;98672.44;2533484;28;20076;-81
2024/02/24 04:17:32;;;;;;;1.33;1.00;;;;;;;0.98;82.68;98681.00;2525758;28;20045;-81
2024/02/24 04:18:46;;;;;;;1.73;1.00;;;;;;;0.97;83.03;98676.72;2523169;28;20050;-82
2024/02/24 04:20:00;;;;;;;1.42;0.98;;;;;;;0.95;82.92;98679.28;2523648;28;20052;-81
2024/02/24 04:21:17;;;;;;;3.92;0.90;;;;;;;0.95;82.90;98670.72;2525224;28;20045;-82
2024/02/24 04:22:30;;;;;;;2.05;0.95;;;;;;;0.92;83.14;98668.16;2532595;28;20042;-82
2024/02/24 04:23:45;;;;;;;2.67;0.90;;;;;;;0.90;83.03;98675.88;2531191;28;20080;-81
2024/02/24 04:24:58;;;;;;;2.03;1.15;;;;;;;0.87;82.89;98678.44;2523101;28;20067;-81
2024/02/24 04:26:12;;;;;;;2.25;0.82;;;;;;;0.83;82.75;98675.03;2522787;28;20046;-80
2024/02/24 04:27:26;;;;;;;1.17;0.85;;;;;;;0.80;83.09;98677.63;2520355;28;20050;-80
2024/02/24 04:28:41;;;;;;;0.90;0.90;;;;;;;0.77;83.08;98672.47;2523448;28;20041;-80
2024/02/24 04:29:55;;;;;;;2.72;1.00;;;;;;;0.75;83.12;98673.31;2529752;28;20054;-80
2024/02/24 04:31:10;;;;;;;2.47;1.02;;;;;;;0.72;83.08;98674.19;2527157;28;20041;-81
2024/02/24 04:32:24;;;;;;;1.20;1.00;;;;;;;0.69;83.16;98676.75;2526537;28;20057;-80
2024/02/24 04:33:38;;;;;;;1.63;0.98;;;;;;;0.66;83.05;98679.31;2531283;28;20133;-80
2024/02/24 04:34:52;;;;;;;1.65;1.05;;;;;;;0.63;83.18;98676.75;2525242;28;20053;-82
2024/02/24 04:36:07;;;;;;;2.30;1.27;;;;;;;0.62;83.25;98682.75;2528916;28;20129;-82
2024/02/24 04:37:20;;;;;;;1.08;0.98;;;;;;;0.62;83.34;98682.75;2523145;28;20366;-82
2024/02/24 04:38:35;;;;;;;1.23;1.00;;;;;;;0.60;83.23;98687.88;2530496;28;20132;-82
2024/02/24 04:39:48;;;;;;;5.35;2.17;;;;;;;0.61;83.39;98687.03;2524946;28;20064;-82
2024/02/24 04:41:03;;;;;;;1.33;1.02;;;;;;;0.62;83.45;98685.31;2529458;28;20041;-81
2024/02/24 04:42:16;;;;;;;7.95;3.05;;;;;;;0.60;83.45;98689.59;2528712;28;20491;-81
2024/02/24 04:43:31;;;;;;;2.95;1.10;;;;;;;0.57;83.21;98684.47;2525334;28;20148;-81
2024/02/24 04:44:49;;;;;;;1.30;0.88;;;;;;;0.56;83.46;98685.31;2524273;28;20054;-81
2024/02/24 04:46:04;;;;;;;0.57;0.50;;;;;;;0.53;83.62;98677.63;2529692;28;20056;-81
2024/02/24 04:47:22;;;;;;;1.45;1.00;;;;;;;0.52;83.42;98686.19;2528159;28;20125;-82
2024/02/24 04:48:37;;;;;;;3.42;1.00;;;;;;;0.50;83.42;98698.16;2524783;28;20091;-81
2024/02/24 04:49:51;;;;;;;2.70;0.73;;;;;;;0.47;83.46;98690.47;2515127;28;20050;-82
2024/02/24 04:51:05;;;;;;;2.45;0.95;;;;;;;0.45;83.48;98687.03;2526798;28;20041;-82
2024/02/24 04:52:19;;;;;;;4.13;1.00;;;;;;;0.41;83.36;98691.28;2528202;28;20053;-82
2024/02/24 04:53:33;;;;;;;1.58;0.98;;;;;;;0.39;83.46;98698.16;2523229;28;20050;-81
2024/02/24 04:54:47;;;;;;;1.10;1.00;;;;;;;0.37;83.25;98695.56;2531194;28;20061;-81
2024/02/24 04:56:01;;;;;;;0.98;0.98;;;;;;;0.35;83.52;98694.72;2526747;28;20041;-82
2024/02/24 04:57:15;;;;;;;1.15;0.80;;;;;;;0.34;83.41;98698.16;2528284;28;20042;-82
2024/02/24 04:58:29;;;;;;;1.10;0.88;;;;;;;0.32;83.45;98694.72;2523426;28;20129;-82
2024/02/24 04:59:43;;;;;;;2.03;0.85;;;;;;;0.28;83.62;98703.25;2531021;28;20048;-82
2024/02/24 05:00:57;;;;;;;1.65;1.55;;;;;;;0.26;83.66;98699.84;2523244;28;20058;-81
2024/02/24 05:02:11;;;;;;;11.18;5.47;;;;;;;0.25;83.51;98705.81;2542179;22;20045;-78
2024/02/24 05:03:27;;;;;;;1.13;0.90;;;;;;;0.22;83.62;98698.13;2524664;28;20041;-78
2024/02/24 05:04:40;;;;;;;3.80;0.98;;;;;;;0.19;83.49;98701.53;2517943;28;20129;-78
2024/02/24 05:05:55;;;;;;;1.25;0.80;;;;;;;0.17;83.76;98708.38;2517519;28;20065;-80
2024/02/24 05:07:08;;;;;;;1.92;1.02;;;;;;;0.17;83.70;98704.97;2519035;28;20053;-80
2024/02/24 05:08:22;;;;;;;2.42;0.90;;;;;;;0.16;83.47;98705.81;2523826;28;20049;-82
2024/02/24 05:09:36;;;;;;;1.67;0.85;;;;;;;0.13;83.51;98700.66;2518476;28;20522;-82
2024/02/24 05:10:50;;;;;;;2.65;0.98;;;;;;;0.13;83.67;98703.22;2516345;28;20056;-80
2024/02/24 05:12:05;;;;;;;0.95;0.90;;;;;;;0.14;83.47;98698.13;2517202;28;20054;-82
2024/02/24 05:13:19;;;;;;;3.58;0.98;;;;;;;0.17;84.10;98707.53;2516527;28;20039;-81
2024/02/24 05:14:33;;;;;;;1.17;1.08;;;;;;;0.19;84.04;98703.25;2516611;28;20046;-81
2024/02/24 05:15:47;;;;;;;1.67;1.27;;;;;;;0.22;84.17;98705.81;2524568;28;20124;-81
2024/02/24 05:17:01;;;;;;;1.30;1.02;;;;;;;0.27;84.22;98714.38;2516716;28;20054;-80
2024/02/24 05:18:15;;;;;;;1.10;1.10;;;;;;;0.33;84.15;98719.50;2516543;28;20059;-79
2024/02/24 05:19:32;;;;;;;1.17;1.10;;;;;;;0.38;84.59;98714.38;2523855;28;20537;-80
2024/02/24 05:20:46;;;;;;;5.90;1.35;;;;;;;0.40;84.67;98708.41;2516876;28;20046;-80
2024/02/24 05:21:59;;;;;;;2.00;1.42;;;;;;;0.46;84.48;98714.41;2516173;28;20046;-81
2024/02/24 05:23:14;;;;;;;0.90;0.90;;;;;;;0.50;84.60;98716.97;2515171;28;20133;-81
2024/02/24 05:24:27;;;;;;;1.60;1.10;;;;;;;0.56;84.60;98714.41;2516047;28;20540;-81
2024/02/24 05:25:42;;;;;;;4.18;0.82;;;;;;;0.61;84.83;98709.28;2524427;28;20064;-81
2024/02/24 05:26:55;;;;;;;1.08;0.98;;;;;;;0.66;84.48;98715.25;2526130;28;20049;-81
2024/02/24 05:28:10;;;;;;;2.15;1.67;;;;;;;0.69;84.79;98704.16;2525964;28;20101;-79
2024/02/24 05:29:23;;;;;;;1.98;1.38;;;;;;;0.71;84.77;98711.00;2520204;28;20046;-81
2024/02/24 05:30:37;;;;;;;1.70;1.20;;;;;;;0.72;84.59;98712.69;2514724;28;20046;-82
2024/02/24 05:31:51;;;;;;;0.95;0.95;;;;;;;0.74;84.51;98699.84;2523615;28;20054;-81
2024/02/24 05:33:05;;;;;;;1.75;1.30;;;;;;;0.75;84.68;98707.56;2520713;28;20046;-82
2024/02/24 05:34:19;;;;;;;2.20;1.42;;;;;;;0.78;84.90;98706.72;2529140;28;20076;-81
2024/02/24 05:35:35;;;;;;;1.73;1.10;;;;;;;0.78;84.69;98702.44;2532082;28;20101;-80
2024/02/24 05:36:48;;;;;;;2.40;1.33;;;;;;;0.78;84.54;98701.59;2529816;28;20055;-81
2024/02/24 05:38:03;;;;;;;2.63;1.15;;;;;;;0.80;84.71;98710.13;2521779;28;20115;-81
2024/02/24 05:39:16;;;;;;;3.03;0.90;;;;;;;0.80;84.38;98712.69;2526654;28;20049;-81
2024/02/24 05:40:31;;;;;;;1.27;1.00;;;;;;;0.82;84.65;98721.25;2530980;28;20475;-80
2024/02/24 05:41:44;;;;;;;3.10;1.67;;;;;;;0.85;84.63;98719.56;2528741;28;20057;-79
2024/02/24 05:42:58;;;;;;;1.80;1.20;;;;;;;0.89;84.55;98719.53;2529469;28;20049;-81
2024/02/24 05:44:12;;;;;;;2.28;1.35;;;;;;;0.91;84.82;98726.41;2529965;28;20050;-81
2024/02/24 05:45:26;;;;;;;2.55;1.40;;;;;;;0.91;84.75;98720.41;2530676;28;20077;-81
2024/02/24 05:46:40;;;;;;;2.97;1.98;;;;;;;0.93;84.40;98721.25;2521093;28;20047;-81
2024/02/24 05:47:56;;;;;;;3.53;1.40;;;;;;;0.93;84.54;98723.81;2528385;28;20533;-79
2024/02/24 05:49:09;;;;;;;0.70;0.70;;;;;;;0.94;84.64;98725.53;2525365;28;20046;-80
2024/02/24 05:50:24;;;;;;;2.05;1.27;;;;;;;0.95;84.47;98728.09;2531481;28;20042;-81
2024/02/24 05:51:42;;;;;;;2.25;1.08;;;;;;;0.98;84.49;98724.66;2522516;28;20038;-78
2024/02/24 05:52:56;;;;;;;2.05;1.13;;;;;;;1.01;84.60;98734.97;2523228;28;20082;-80
2024/02/24 05:54:09;;;;;;;1.90;1.60;;;;;;;1.06;84.64;98722.97;2526955;28;20057;-80